Time;durP1;ratioP1;P1;durP2;ratioP2;P2;SDS_P1;SDS_P2;PMS_P1;PMS_P2;Temp;Humidity;BMP_temperature;BMP_pressure;BME280_temperature;BME280_humidity;BME280_pressure;Samples;Min_cycle;Max_cycle;Signal;HPM_P1;HPM_P2
2021/10/13 00:01:07;;;;;;;66.35;39.80;;;;;;;;;;5030579;28;20021;-56
2021/10/13 00:03:33;;;;;;;75.40;43.78;;;;;;;;;;5031644;28;20029;-56
2021/10/13 00:05:59;;;;;;;89.20;50.47;;;;;;;;;;5032060;28;20025;-56
2021/10/13 00:08:25;;;;;;;48.90;29.02;;;;;;;;;;5031830;28;20025;-56
2021/10/13 00:10:51;;;;;;;35.88;23.30;;;;;;;;;;5030361;28;20528;-55
2021/10/13 00:13:18;;;;;;;26.42;18.48;;;;;;;;;;5028701;28;20025;-57
2021/10/13 00:15:45;;;;;;;34.38;20.38;;;;;;;;;;5028664;28;20022;-56
2021/10/13 00:18:11;;;;;;;30.58;18.80;;;;;;;;;;5027855;28;20451;-57
2021/10/13 00:20:37;;;;;;;28.08;18.15;;;;;;;;;;5027451;28;20041;-57
2021/10/13 00:23:04;;;;;;;37.22;22.35;;;;;;;;;;5028420;28;20115;-57
2021/10/13 00:25:30;;;;;;;34.78;23.17;;;;;;;;;;5030132;28;20200;-54
2021/10/13 00:27:56;;;;;;;33.58;20.50;;;;;;;;;;5026947;28;20028;-56
2021/10/13 00:30:24;;;;;;;32.20;20.35;;;;;;;;;;5026728;28;20160;-55
2021/10/13 00:32:50;;;;;;;53.20;29.20;;;;;;;;;;5043885;28;20397;-57
2021/10/13 00:35:16;;;;;;;30.00;20.30;;;;;;;;;;5048753;28;20060;-57
2021/10/13 00:37:43;;;;;;;37.78;23.58;;;;;;;;;;5055890;28;20374;-56
2021/10/13 00:40:09;;;;;;;40.90;23.50;;;;;;;;;;5055904;28;20033;-57
2021/10/13 00:42:35;;;;;;;41.58;24.25;;;;;;;;;;5055850;28;20029;-56
2021/10/13 00:45:01;;;;;;;33.15;20.00;;;;;;;;;;5055842;28;20444;-56
2021/10/13 00:47:29;;;;;;;44.03;26.42;;;;;;;;;;5055789;28;20025;-56
2021/10/13 00:49:55;;;;;;;39.72;24.60;;;;;;;;;;5055674;28;20096;-56
2021/10/13 00:52:22;;;;;;;38.80;21.85;;;;;;;;;;5055286;28;20040;-54
2021/10/13 00:54:50;;;;;;;26.42;16.80;;;;;;;;;;5055575;28;20029;-54
2021/10/13 00:57:16;;;;;;;30.05;16.40;;;;;;;;;;5055495;28;20039;-54
2021/10/13 00:59:42;;;;;;;25.67;17.40;;;;;;;;;;5055536;28;20033;-55
2021/10/13 01:02:11;;;;;;;26.65;17.63;;;;;;;;;;5055489;28;20358;-55
2021/10/13 01:04:47;;;;;;;32.85;21.20;;;;;;;;;;5054000;28;20090;-54
2021/10/13 01:07:34;;;;;;;19.50;15.63;;;;;;;;;;5055343;28;20082;-54
2021/10/13 01:10:06;;;;;;;25.38;16.73;;;;;;;;;;5055251;28;20025;-55
2021/10/13 01:12:53;;;;;;;21.83;15.35;;;;;;;;;;5055307;28;20021;-54
2021/10/13 01:15:22;;;;;;;37.97;21.33;;;;;;;;;;5055134;28;20028;-54
2021/10/13 01:17:53;;;;;;;39.90;24.65;;;;;;;;;;5055180;28;20017;-57
2021/10/13 01:20:24;;;;;;;34.30;20.85;;;;;;;;;;5055202;28;20501;-56
2021/10/13 01:23:03;;;;;;;32.00;20.33;;;;;;;;;;5055040;28;20512;-54
2021/10/13 01:25:36;;;;;;;23.42;15.30;;;;;;;;;;5054824;28;20044;-55
2021/10/13 01:28:04;;;;;;;28.45;17.13;;;;;;;;;;5054912;28;20035;-55
2021/10/13 01:30:36;;;;;;;32.42;20.00;;;;;;;;;;5054959;28;20055;-55
2021/10/13 01:33:06;;;;;;;33.08;21.45;;;;;;;;;;5054877;28;20029;-54
2021/10/13 01:35:33;;;;;;;25.63;16.55;;;;;;;;;;5054792;28;20047;-55
2021/10/13 01:38:02;;;;;;;31.05;20.27;;;;;;;;;;5054940;28;20025;-55
2021/10/13 01:40:30;;;;;;;24.67;16.48;;;;;;;;;;5054847;28;20115;-54
2021/10/13 01:42:57;;;;;;;25.50;16.48;;;;;;;;;;5055227;28;20096;-55
2021/10/13 01:45:24;;;;;;;24.63;16.58;;;;;;;;;;5054811;28;20523;-56
2021/10/13 01:47:50;;;;;;;30.50;19.65;;;;;;;;;;5054652;28;20091;-55
2021/10/13 01:50:20;;;;;;;22.83;15.50;;;;;;;;;;5054702;28;20025;-55
2021/10/13 01:52:48;;;;;;;25.58;17.38;;;;;;;;;;5054644;28;20024;-55
2021/10/13 01:55:16;;;;;;;26.73;17.55;;;;;;;;;;5054430;28;20430;-55
2021/10/13 01:57:45;;;;;;;32.47;20.73;;;;;;;;;;5054583;28;20090;-55
2021/10/13 02:00:12;;;;;;;37.88;24.58;;;;;;;;;;5054456;28;20054;-55
2021/10/13 02:02:38;;;;;;;40.95;23.60;;;;;;;;;;5054309;28;20083;-54
2021/10/13 02:05:06;;;;;;;38.00;23.92;;;;;;;;;;5054024;28;20033;-54
2021/10/13 02:07:33;;;;;;;33.17;19.55;;;;;;;;;;5054462;28;20036;-55
2021/10/13 02:10:02;;;;;;;23.50;15.30;;;;;;;;;;5054162;28;20024;-55
2021/10/13 02:12:29;;;;;;;35.03;19.73;;;;;;;;;;5054063;28;20029;-56
2021/10/13 02:14:56;;;;;;;29.08;18.77;;;;;;;;;;5054139;28;20028;-55
2021/10/13 02:17:23;;;;;;;23.45;15.90;;;;;;;;;;5053953;28;20021;-54
2021/10/13 02:19:49;;;;;;;31.58;19.30;;;;;;;;;;5054068;28;20065;-55
2021/10/13 02:22:16;;;;;;;31.10;20.58;;;;;;;;;;5054043;28;20028;-55
2021/10/13 02:24:45;;;;;;;25.55;17.50;;;;;;;;;;5053776;28;20053;-57
2021/10/13 02:27:14;;;;;;;32.35;19.63;;;;;;;;;;5054063;28;20019;-54
2021/10/13 02:29:40;;;;;;;40.13;24.23;;;;;;;;;;5053896;28;20021;-54
2021/10/13 02:32:11;;;;;;;29.98;18.85;;;;;;;;;;5053873;28;20032;-54
2021/10/13 02:34:40;;;;;;;23.13;14.73;;;;;;;;;;5053707;28;20021;-54
2021/10/13 02:37:06;;;;;;;28.55;16.83;;;;;;;;;;5053811;28;20024;-54
2021/10/13 02:39:32;;;;;;;26.50;15.73;;;;;;;;;;5053905;28;20469;-54
2021/10/13 02:41:59;;;;;;;23.05;14.02;;;;;;;;;;5053730;28;20544;-54
2021/10/13 02:44:25;;;;;;;27.52;15.73;;;;;;;;;;5053722;28;20029;-54
2021/10/13 02:47:02;;;;;;;39.25;21.73;;;;;;;;;;5053675;28;20109;-54
2021/10/13 02:49:36;;;;;;;24.45;16.20;;;;;;;;;;5053627;28;20431;-54
2021/10/13 02:52:05;;;;;;;26.08;17.00;;;;;;;;;;5053480;28;20051;-55
2021/10/13 02:54:49;;;;;;;34.88;19.67;;;;;;;;;;5053515;28;20028;-54
2021/10/13 02:57:16;;;;;;;30.05;17.38;;;;;;;;;;5053381;28;20465;-54
2021/10/13 02:59:43;;;;;;;27.65;17.75;;;;;;;;;;5053368;28;20041;-54
2021/10/13 03:02:13;;;;;;;28.17;17.88;;;;;;;;;;5053521;28;20028;-54
2021/10/13 03:04:40;;;;;;;30.17;18.33;;;;;;;;;;5053316;28;20057;-54
2021/10/13 03:07:14;;;;;;;29.05;19.20;;;;;;;;;;5053311;28;20033;-54
2021/10/13 03:09:45;;;;;;;25.10;15.63;;;;;;;;;;5053456;28;20021;-54
2021/10/13 03:12:12;;;;;;;22.65;14.60;;;;;;;;;;5053463;28;20029;-54
2021/10/13 03:14:39;;;;;;;22.83;15.60;;;;;;;;;;5053307;28;20033;-54
2021/10/13 03:17:05;;;;;;;26.35;14.93;;;;;;;;;;5053164;28;20032;-54
2021/10/13 03:19:34;;;;;;;24.60;15.10;;;;;;;;;;5053059;28;20059;-54
2021/10/13 03:22:01;;;;;;;23.10;16.05;;;;;;;;;;5053224;28;20032;-54
2021/10/13 03:24:28;;;;;;;27.10;16.63;;;;;;;;;;5053051;28;20415;-54
2021/10/13 03:26:54;;;;;;;29.52;17.67;;;;;;;;;;5053251;28;20112;-54
2021/10/13 03:29:20;;;;;;;25.58;16.55;;;;;;;;;;5053038;28;20021;-54
2021/10/13 03:31:46;;;;;;;26.63;17.38;;;;;;;;;;5053016;28;20481;-54
2021/10/13 03:34:16;;;;;;;30.38;17.85;;;;;;;;;;5053339;28;20074;-54
2021/10/13 03:36:46;;;;;;;27.48;19.05;;;;;;;;;;5053244;28;20362;-54
2021/10/13 03:39:12;;;;;;;28.80;18.48;;;;;;;;;;5053195;28;20037;-54
2021/10/13 03:41:39;;;;;;;32.38;18.00;;;;;;;;;;5053215;28;20017;-55
2021/10/13 03:44:05;;;;;;;38.40;20.80;;;;;;;;;;5052910;28;20025;-54
2021/10/13 03:46:31;;;;;;;35.45;17.80;;;;;;;;;;5052782;28;20108;-55
2021/10/13 03:49:01;;;;;;;36.47;19.90;;;;;;;;;;5053189;28;20029;-55
2021/10/13 03:51:28;;;;;;;35.63;18.33;;;;;;;;;;5053161;28;20021;-54
2021/10/13 03:53:54;;;;;;;42.38;21.25;;;;;;;;;;5052734;28;20039;-55
2021/10/13 03:56:20;;;;;;;35.78;19.20;;;;;;;;;;5053091;28;20025;-55
2021/10/13 03:58:46;;;;;;;33.95;20.27;;;;;;;;;;5053020;28;20067;-55
2021/10/13 04:01:12;;;;;;;33.75;20.83;;;;;;;;;;5052811;28;20051;-55
2021/10/13 04:03:39;;;;;;;37.28;21.95;;;;;;;;;;5052781;28;20469;-55
2021/10/13 04:06:05;;;;;;;38.63;21.23;;;;;;;;;;5052574;28;20040;-55
2021/10/13 04:08:32;;;;;;;32.78;19.80;;;;;;;;;;5052708;28;20025;-55
2021/10/13 04:10:58;;;;;;;35.58;22.38;;;;;;;;;;5052930;28;20048;-55
2021/10/13 04:13:26;;;;;;;35.40;22.10;;;;;;;;;;5052593;28;20029;-55
2021/10/13 04:15:53;;;;;;;34.85;20.42;;;;;;;;;;5052534;28;20108;-55
2021/10/13 04:18:21;;;;;;;37.85;23.83;;;;;;;;;;5052625;28;20036;-56
2021/10/13 04:20:48;;;;;;;41.22;22.08;;;;;;;;;;5052463;28;20041;-55
2021/10/13 04:23:16;;;;;;;32.45;21.40;;;;;;;;;;5052831;28;20477;-55
2021/10/13 04:25:42;;;;;;;31.33;20.23;;;;;;;;;;5052461;28;20084;-55
2021/10/13 04:28:08;;;;;;;32.78;21.02;;;;;;;;;;5055569;28;20049;-55
2021/10/13 04:30:37;;;;;;;34.10;19.70;;;;;;;;;;5056177;28;20037;-55
2021/10/13 04:33:03;;;;;;;33.67;19.10;;;;;;;;;;5056059;28;20029;-55
2021/10/13 04:35:29;;;;;;;26.30;18.40;;;;;;;;;;5055869;28;20489;-56
2021/10/13 04:37:56;;;;;;;28.45;18.40;;;;;;;;;;5056018;28;20032;-55
2021/10/13 04:40:22;;;;;;;27.85;18.92;;;;;;;;;;5056035;28;20037;-55
2021/10/13 04:42:48;;;;;;;28.90;18.67;;;;;;;;;;5055945;28;20056;-55
2021/10/13 04:45:14;;;;;;;34.15;21.08;;;;;;;;;;5056148;28;20029;-58
2021/10/13 04:47:40;;;;;;;35.33;21.75;;;;;;;;;;5055710;28;20053;-55
2021/10/13 04:50:06;;;;;;;30.00;19.52;;;;;;;;;;5055775;28;20028;-55
2021/10/13 04:52:35;;;;;;;33.45;20.65;;;;;;;;;;5055857;28;20036;-55
2021/10/13 04:55:01;;;;;;;28.15;18.90;;;;;;;;;;5055934;28;20526;-53
2021/10/13 04:57:27;;;;;;;30.25;17.80;;;;;;;;;;5055685;28;20032;-54
2021/10/13 04:59:55;;;;;;;32.85;20.63;;;;;;;;;;5055572;28;20035;-54
2021/10/13 05:02:23;;;;;;;28.15;18.27;;;;;;;;;;5054640;28;20021;-54
2021/10/13 05:04:49;;;;;;;29.02;20.17;;;;;;;;;;5055684;28;20036;-53
2021/10/13 05:07:16;;;;;;;35.38;20.50;;;;;;;;;;5055468;28;20035;-54
2021/10/13 05:09:43;;;;;;;26.95;16.17;;;;;;;;;;5055452;28;20029;-53
2021/10/13 05:12:09;;;;;;;31.70;18.50;;;;;;;;;;5055501;28;20021;-52
2021/10/13 05:14:35;;;;;;;27.95;19.10;;;;;;;;;;5055213;28;20024;-53
2021/10/13 05:17:01;;;;;;;30.60;18.67;;;;;;;;;;5055299;28;20028;-51
2021/10/13 05:19:29;;;;;;;37.10;20.00;;;;;;;;;;5055148;28;20037;-53
2021/10/13 05:21:55;;;;;;;53.50;25.08;;;;;;;;;;5055432;28;20029;-52
2021/10/13 05:24:21;;;;;;;51.75;26.63;;;;;;;;;;5054941;28;20056;-52
2021/10/13 05:26:47;;;;;;;50.42;25.25;;;;;;;;;;5055264;28;20035;-53
2021/10/13 05:29:14;;;;;;;53.10;25.27;;;;;;;;;;5055070;28;20036;-52
2021/10/13 05:31:42;;;;;;;46.72;22.30;;;;;;;;;;5054732;28;20103;-52
2021/10/13 05:34:08;;;;;;;38.22;20.20;;;;;;;;;;5054569;28;20809;-50
2021/10/13 05:36:34;;;;;;;39.13;20.25;;;;;;;;;;5053479;28;20083;-52
2021/10/13 05:39:00;;;;;;;23.65;14.40;;;;;;;;;;5053805;28;20115;-52
2021/10/13 05:41:26;;;;;;;26.00;14.18;;;;;;;;;;5054790;28;20485;-50
2021/10/13 05:43:52;;;;;;;24.52;14.40;;;;;;;;;;5054765;28;20021;-53
2021/10/13 05:46:18;;;;;;;29.42;18.35;;;;;;;;;;5054633;28;20078;-53
2021/10/13 05:48:44;;;;;;;39.92;28.88;;;;;;;;;;5054959;28;20466;-53
2021/10/13 05:51:10;;;;;;;42.45;26.33;;;;;;;;;;5054659;28;20028;-53
2021/10/13 05:53:37;;;;;;;35.15;20.13;;;;;;;;;;5054630;28;20037;-53
2021/10/13 05:56:03;;;;;;;41.03;24.13;;;;;;;;;;5054679;28;20021;-53
2021/10/13 05:58:29;;;;;;;32.38;19.05;;;;;;;;;;5054450;28;20104;-54
2021/10/13 06:00:55;;;;;;;33.58;18.85;;;;;;;;;;5054139;28;20029;-54
2021/10/13 06:03:22;;;;;;;37.22;22.83;;;;;;;;;;5054262;28;20469;-52
2021/10/13 06:05:48;;;;;;;37.55;22.63;;;;;;;;;;5054370;28;20056;-52
2021/10/13 06:08:15;;;;;;;37.67;21.55;;;;;;;;;;5054363;28;20029;-52
2021/10/13 06:10:42;;;;;;;34.72;22.00;;;;;;;;;;5054200;28;20035;-52
2021/10/13 06:13:08;;;;;;;56.53;28.85;;;;;;;;;;5054061;28;20473;-52
2021/10/13 06:15:34;;;;;;;53.05;31.55;;;;;;;;;;5054028;28;20441;-52
2021/10/13 06:18:04;;;;;;;58.30;29.65;;;;;;;;;;5054245;28;20025;-52
2021/10/13 06:20:31;;;;;;;62.92;34.10;;;;;;;;;;5054111;28;20041;-52
2021/10/13 06:22:57;;;;;;;67.85;36.45;;;;;;;;;;5052624;28;20496;-53
2021/10/13 06:25:23;;;;;;;59.47;34.85;;;;;;;;;;5053913;28;20053;-52
2021/10/13 06:27:49;;;;;;;64.90;37.17;;;;;;;;;;5053941;28;20116;-53
2021/10/13 06:30:15;;;;;;;62.50;36.13;;;;;;;;;;5053983;28;20044;-52
2021/10/13 06:32:41;;;;;;;58.75;33.20;;;;;;;;;;5053760;28;20021;-52
2021/10/13 06:35:08;;;;;;;62.78;34.03;;;;;;;;;;5053712;28;20021;-54
2021/10/13 06:37:34;;;;;;;58.25;33.20;;;;;;;;;;5053692;28;20040;-54
2021/10/13 06:40:00;;;;;;;49.78;27.67;;;;;;;;;;5053660;28;20064;-54
2021/10/13 06:42:28;;;;;;;58.40;33.60;;;;;;;;;;5053690;28;20032;-53
2021/10/13 06:44:55;;;;;;;59.20;33.45;;;;;;;;;;5053586;28;20021;-54
2021/10/13 06:47:21;;;;;;;49.53;28.83;;;;;;;;;;5052496;28;20107;-53
2021/10/13 06:49:47;;;;;;;115.50;56.00;;;;;;;;;;5053468;28;20461;-54
2021/10/13 06:52:13;;;;;;;79.13;37.50;;;;;;;;;;5053537;28;20075;-53
2021/10/13 06:54:39;;;;;;;71.10;38.05;;;;;;;;;;5053498;28;20028;-53
2021/10/13 06:57:05;;;;;;;57.20;33.58;;;;;;;;;;5053400;28;20354;-54
2021/10/13 06:59:33;;;;;;;82.20;42.55;;;;;;;;;;5053354;28;20025;-53
2021/10/13 07:01:59;;;;;;;58.83;31.10;;;;;;;;;;5053708;28;20597;-54
2021/10/13 07:04:25;;;;;;;55.13;27.45;;;;;;;;;;5053395;28;20025;-54
2021/10/13 07:06:51;;;;;;;38.78;21.58;;;;;;;;;;5053363;28;20029;-54
2021/10/13 07:09:17;;;;;;;35.67;20.88;;;;;;;;;;5053145;28;20116;-53
2021/10/13 07:11:43;;;;;;;46.95;25.02;;;;;;;;;;5053239;28;20096;-53
2021/10/13 07:14:12;;;;;;;59.60;29.92;;;;;;;;;;5053092;28;20075;-53
2021/10/13 07:16:40;;;;;;;60.67;30.60;;;;;;;;;;5053095;28;20166;-54
2021/10/13 07:19:09;;;;;;;40.33;21.98;;;;;;;;;;5053122;28;20051;-54
2021/10/13 07:21:37;;;;;;;51.90;28.75;;;;;;;;;;5053158;28;20021;-59
2021/10/13 07:24:03;;;;;;;46.10;24.85;;;;;;;;;;5053226;28;20531;-58
2021/10/13 07:26:33;;;;;;;29.42;17.65;;;;;;;;;;5053162;28;20103;-58
2021/10/13 07:28:59;;;;;;;44.22;25.65;;;;;;;;;;5053133;28;20063;-58
2021/10/13 07:31:27;;;;;;;33.25;19.52;;;;;;;;;;5053160;28;20052;-58
2021/10/13 07:33:53;;;;;;;29.17;15.90;;;;;;;;;;5053160;28;20047;-58
2021/10/13 07:36:19;;;;;;;42.83;25.55;;;;;;;;;;5053078;28;20028;-57
2021/10/13 07:38:46;;;;;;;57.05;34.22;;;;;;;;;;5052875;28;20571;-56
2021/10/13 07:41:16;;;;;;;42.60;22.02;;;;;;;;;;5052890;28;20088;-60
2021/10/13 07:43:43;;;;;;;17.08;11.75;;;;;;;;;;5052873;28;20023;-59
2021/10/13 07:46:11;;;;;;;21.45;14.25;;;;;;;;;;5053005;28;20100;-59
2021/10/13 07:48:37;;;;;;;35.63;21.65;;;;;;;;;;5053108;28;20017;-57
2021/10/13 07:51:03;;;;;;;46.75;28.67;;;;;;;;;;5052954;28;20060;-60
2021/10/13 07:53:29;;;;;;;21.92;14.70;;;;;;;;;;5052875;28;20025;-59
2021/10/13 07:55:55;;;;;;;27.05;16.77;;;;;;;;;;5052753;28;20025;-57
2021/10/13 07:58:22;;;;;;;34.88;18.10;;;;;;;;;;5052756;28;20017;-57
2021/10/13 08:00:48;;;;;;;24.38;13.15;;;;;;;;;;5052636;28;20037;-58
2021/10/13 08:03:15;;;;;;;20.42;12.13;;;;;;;;;;5056440;28;20032;-57
2021/10/13 08:05:41;;;;;;;22.20;13.95;;;;;;;;;;5057154;28;20040;-58
2021/10/13 08:08:07;;;;;;;24.45;12.18;;;;;;;;;;5056643;28;20044;-56
2021/10/13 08:10:33;;;;;;;32.65;16.33;;;;;;;;;;5056659;28;20150;-57
2021/10/13 08:12:59;;;;;;;32.90;18.05;;;;;;;;;;5056467;28;20033;-57
2021/10/13 08:15:26;;;;;;;19.38;10.80;;;;;;;;;;5056349;28;20029;-56
2021/10/13 08:17:52;;;;;;;15.57;10.60;;;;;;;;;;5056479;28;20025;-55
2021/10/13 08:20:18;;;;;;;28.90;16.02;;;;;;;;;;5056376;28;20032;-56
2021/10/13 08:22:46;;;;;;;23.70;11.85;;;;;;;;;;5056343;28;20029;-56
2021/10/13 08:25:12;;;;;;;46.92;23.17;;;;;;;;;;5056159;28;20048;-56
2021/10/13 08:27:38;;;;;;;20.55;10.90;;;;;;;;;;5056221;28;20028;-57
2021/10/13 08:30:05;;;;;;;22.98;11.30;;;;;;;;;;5056078;28;20021;-57
2021/10/13 08:32:31;;;;;;;34.97;16.60;;;;;;;;;;5056455;28;20139;-53
2021/10/13 08:34:57;;;;;;;27.30;12.68;;;;;;;;;;5056233;28;20488;-48
2021/10/13 08:37:23;;;;;;;17.73;11.13;;;;;;;;;;5056135;28;20033;-48
2021/10/13 08:39:49;;;;;;;24.77;12.00;;;;;;;;;;5054705;28;20051;-56
2021/10/13 08:42:21;;;;;;;12.07;7.45;;;;;;;;;;5055997;28;20422;-56
2021/10/13 08:44:47;;;;;;;20.30;10.32;;;;;;;;;;5056005;28;20029;-56
2021/10/13 08:47:15;;;;;;;15.45;9.40;;;;;;;;;;5055779;28;20487;-56
2021/10/13 08:49:42;;;;;;;45.10;23.05;;;;;;;;;;5055840;28;20025;-51
2021/10/13 08:52:11;;;;;;;45.00;20.85;;;;;;;;;;5055479;28;20028;-52
2021/10/13 08:54:40;;;;;;;50.25;23.70;;;;;;;;;;5055656;28;20033;-53
2021/10/13 08:57:19;;;;;;;21.35;13.10;;;;;;;;;;5055632;28;20021;-52
2021/10/13 08:59:47;;;;;;;34.67;19.55;;;;;;;;;;5055394;28;20029;-51
2021/10/13 09:02:16;;;;;;;28.63;15.20;;;;;;;;;;5055456;28;20481;-52
2021/10/13 09:05:01;;;;;;;25.13;16.42;;;;;;;;;;5055591;28;20489;-52
2021/10/13 09:07:27;;;;;;;47.00;29.25;;;;;;;;;;5055374;28;20083;-52
2021/10/13 09:09:53;;;;;;;30.17;17.33;;;;;;;;;;5055292;28;20395;-51
2021/10/13 09:12:48;;;;;;;67.15;36.95;;;;;;;;;;5054938;28;20071;-53
2021/10/13 09:15:15;;;;;;;29.58;17.02;;;;;;;;;;5016495;28;20038;-52
2021/10/13 09:17:54;;;;;;;43.47;25.20;;;;;;;;;;5033134;28;20033;-53
2021/10/13 09:20:25;;;;;;;61.60;38.30;;;;;;;;;;5032915;28;20042;-53
2021/10/13 09:22:57;;;;;;;24.67;12.15;;;;;;;;;;5032897;28;20063;-53
2021/10/13 09:25:23;;;;;;;55.50;28.13;;;;;;;;;;5032702;28;20406;-54
2021/10/13 09:27:49;;;;;;;39.35;20.08;;;;;;;;;;5032944;28;20461;-53
2021/10/13 09:30:15;;;;;;;24.23;15.75;;;;;;;;;;5032938;28;20075;-53
2021/10/13 09:32:45;;;;;;;23.10;13.82;;;;;;;;;;5032760;28;20088;-51
2021/10/13 09:35:11;;;;;;;32.78;22.48;;;;;;;;;;5032701;28;20412;-52
2021/10/13 09:37:47;;;;;;;36.20;22.15;;;;;;;;;;5032775;28;20469;-54
2021/10/13 09:40:13;;;;;;;42.63;24.55;;;;;;;;;;5032639;28;20551;-53
2021/10/13 09:42:41;;;;;;;44.25;25.88;;;;;;;;;;5032705;28;20030;-54
2021/10/13 09:45:11;;;;;;;22.90;16.60;;;;;;;;;;5032574;28;20041;-53
2021/10/13 09:47:37;;;;;;;31.50;19.40;;;;;;;;;;5032620;28;20485;-54
2021/10/13 09:50:07;;;;;;;31.42;20.45;;;;;;;;;;5032399;28;20106;-54
2021/10/13 09:52:33;;;;;;;32.72;19.02;;;;;;;;;;5051524;28;20035;-54
2021/10/13 09:55:00;;;;;;;38.42;22.08;;;;;;;;;;5054408;28;20035;-60
2021/10/13 09:57:28;;;;;;;40.05;24.17;;;;;;;;;;5037488;28;20029;-50
2021/10/13 10:00:02;;;;;;;20.23;12.23;;;;;;;;;;5026891;28;20029;-51
2021/10/13 10:02:33;;;;;;;63.58;34.65;;;;;;;;;;5027056;28;20028;-57
2021/10/13 10:05:00;;;;;;;52.78;29.90;;;;;;;;;;5027113;28;20156;-59
2021/10/13 10:07:26;;;;;;;56.83;30.15;;;;;;;;;;5027452;28;20033;-60
2021/10/13 10:10:11;;;;;;;39.85;21.10;;;;;;;;;;5026889;28;20033;-61
2021/10/13 10:12:55;;;;;;;55.25;27.17;;;;;;;;;;5027596;28;20029;-60
2021/10/13 10:15:31;;;;;;;105.32;52.78;;;;;;;;;;5026983;28;20029;-57
2021/10/13 10:17:58;;;;;;;34.85;16.98;;;;;;;;;;5041308;28;20108;-59
2021/10/13 10:20:41;;;;;;;19.52;11.57;;;;;;;;;;5053918;28;20075;-58
2021/10/13 10:23:29;;;;;;;29.48;13.55;;;;;;;;;;5054024;28;20035;-59
2021/10/13 10:25:56;;;;;;;34.70;15.70;;;;;;;;;;5053286;28;20052;-60
2021/10/13 10:28:41;;;;;;;91.88;48.70;;;;;;;;;;5053844;28;20029;-60
2021/10/13 10:31:36;;;;;;;53.78;27.52;;;;;;;;;;5053822;28;20033;-59
2021/10/13 10:34:08;;;;;;;63.97;33.10;;;;;;;;;;5051545;28;20029;-61
2021/10/13 10:36:34;;;;;;;61.08;34.13;;;;;;;;;;5051620;28;20095;-53
2021/10/13 10:39:00;;;;;;;30.27;16.88;;;;;;;;;;5051594;28;20107;-58
2021/10/13 10:41:45;;;;;;;15.38;8.85;;;;;;;;;;5051484;28;20563;-55
2021/10/13 10:44:29;;;;;;;178.35;15.27;;;;;;;;;;5051541;28;20686;-56
2021/10/13 10:47:01;;;;;;;9.80;4.97;;;;;;;;;;5051442;28;20485;-54
2021/10/13 10:49:45;;;;;;;10.35;5.25;;;;;;;;;;5051515;28;20037;-55
2021/10/13 10:52:15;;;;;;;8.70;4.95;;;;;;;;;;5051408;28;20487;-57
2021/10/13 10:54:55;;;;;;;14.75;5.50;;;;;;;;;;5051449;28;20040;-55
2021/10/13 10:57:33;;;;;;;50.97;25.35;;;;;;;;;;5051334;28;20037;-55
2021/10/13 11:00:00;;;;;;;61.00;35.50;;;;;;;;;;5051133;28;20025;-55
2021/10/13 11:02:27;;;;;;;34.05;18.30;;;;;;;;;;5051332;28;20377;-51
2021/10/13 11:05:09;;;;;;;65.47;36.65;;;;;;;;;;5051123;28;20032;-53
2021/10/13 11:07:39;;;;;;;66.95;34.97;;;;;;;;;;5051189;28;20052;-53
2021/10/13 11:10:13;;;;;;;85.18;44.83;;;;;;;;;;5051837;28;20131;-54
2021/10/13 11:12:49;;;;;;;94.97;47.80;;;;;;;;;;5053287;28;20025;-53
2021/10/13 11:15:16;;;;;;;100.55;43.85;;;;;;;;;;5053061;28;20053;-53
2021/10/13 11:17:42;;;;;;;26.85;11.50;;;;;;;;;;5053273;28;20025;-52
2021/10/13 11:20:09;;;;;;;21.77;8.75;;;;;;;;;;5053133;28;20063;-62
2021/10/13 11:22:35;;;;;;;20.40;10.35;;;;;;;;;;5052973;28;20029;-59
2021/10/13 11:25:11;;;;;;;21.75;11.45;;;;;;;;;;5053037;28;20053;-60
2021/10/13 11:27:37;;;;;;;24.70;12.52;;;;;;;;;;5053158;28;20432;-63
2021/10/13 11:30:14;;;;;;;28.38;12.98;;;;;;;;;;5053040;28;20018;-61
2021/10/13 11:32:42;;;;;;;31.05;12.82;;;;;;;;;;5052990;28;20082;-51
2021/10/13 11:35:11;;;;;;;61.83;24.48;;;;;;;;;;5053133;28;20026;-52
2021/10/13 11:37:37;;;;;;;35.83;16.65;;;;;;;;;;5055548;28;20021;-52
2021/10/13 11:40:03;;;;;;;23.00;10.85;;;;;;;;;;5056970;28;20056;-53
2021/10/13 11:42:31;;;;;;;20.35;9.73;;;;;;;;;;5057103;28;20469;-51
2021/10/13 11:44:57;;;;;;;43.35;19.70;;;;;;;;;;5056929;28;20075;-51
2021/10/13 11:47:31;;;;;;;28.08;14.32;;;;;;;;;;5056952;28;20021;-50
2021/10/13 11:50:00;;;;;;;33.85;15.18;;;;;;;;;;5056818;28;20021;-53
2021/10/13 11:52:26;;;;;;;46.47;18.98;;;;;;;;;;5056825;28;20477;-51
2021/10/13 11:55:00;;;;;;;28.10;12.68;;;;;;;;;;5056845;28;20079;-50
2021/10/13 11:57:26;;;;;;;34.40;16.33;;;;;;;;;;5056753;28;20027;-55
2021/10/13 12:00:10;;;;;;;19.45;9.50;;;;;;;;;;5056633;28;20074;-51
2021/10/13 12:02:36;;;;;;;24.52;12.80;;;;;;;;;;5056814;28;20421;-50
2021/10/13 12:05:04;;;;;;;77.72;37.00;;;;;;;;;;5056459;28;20032;-50
2021/10/13 12:07:39;;;;;;;25.73;14.18;;;;;;;;;;5056739;28;20036;-51
2021/10/13 12:10:06;;;;;;;26.00;14.48;;;;;;;;;;5056599;28;20029;-49
2021/10/13 12:12:32;;;;;;;30.75;15.27;;;;;;;;;;5056449;28;20025;-58
2021/10/13 12:15:02;;;;;;;88.75;43.15;;;;;;;;;;5056281;28;20032;-50
2021/10/13 12:17:29;;;;;;;34.50;17.63;;;;;;;;;;5056380;28;20029;-52
2021/10/13 12:19:56;;;;;;;22.17;11.40;;;;;;;;;;5056514;28;20083;-51
2021/10/13 12:22:29;;;;;;;42.58;18.83;;;;;;;;;;5056245;28;20033;-54
2021/10/13 12:24:58;;;;;;;28.98;14.80;;;;;;;;;;5056157;28;20049;-55
2021/10/13 12:27:25;;;;;;;31.17;15.40;;;;;;;;;;5056208;28;20025;-52
2021/10/13 12:29:54;;;;;;;49.80;25.35;;;;;;;;;;5055988;28;20547;-51
2021/10/13 12:32:21;;;;;;;77.90;39.45;;;;;;;;;;5056265;28;20111;-58
2021/10/13 12:34:48;;;;;;;43.20;22.77;;;;;;;;;;5055617;28;20467;-50
2021/10/13 12:37:14;;;;;;;34.25;18.83;;;;;;;;;;5056068;28;20515;-60
2021/10/13 12:39:40;;;;;;;28.80;15.00;;;;;;;;;;5055600;28;20029;-62
2021/10/13 12:42:15;;;;;;;44.10;24.00;;;;;;;;;;5054032;28;20033;-51
2021/10/13 12:44:42;;;;;;;23.80;13.10;;;;;;;;;;5055253;28;20009;-62
2021/10/13 12:47:14;;;;;;;51.88;29.35;;;;;;;;;;5054875;28;20469;-52
2021/10/13 12:49:41;;;;;;;44.38;17.77;;;;;;;;;;5055430;28;20021;-62
2021/10/13 12:52:09;;;;;;;43.85;23.85;;;;;;;;;;5055268;28;20043;-51
2021/10/13 12:54:39;;;;;;;35.38;18.33;;;;;;;;;;5055552;28;20028;-50
2021/10/13 12:57:09;;;;;;;53.25;28.45;;;;;;;;;;5055070;28;20037;-50
2021/10/13 12:59:42;;;;;;;33.50;18.75;;;;;;;;;;5055117;28;20025;-50
2021/10/13 13:02:08;;;;;;;28.10;14.27;;;;;;;;;;5055056;28;20036;-50
2021/10/13 13:04:34;;;;;;;49.78;28.27;;;;;;;;;;5053589;28;20043;-51
2021/10/13 13:07:03;;;;;;;59.63;31.17;;;;;;;;;;5055077;28;20393;-54
2021/10/13 13:09:29;;;;;;;42.13;21.30;;;;;;;;;;5054963;28;20017;-53
2021/10/13 13:11:55;;;;;;;54.22;30.15;;;;;;;;;;5054865;28;20031;-56
2021/10/13 13:14:21;;;;;;;136.88;75.53;;;;;;;;;;5055398;28;20496;-51
2021/10/13 13:16:47;;;;;;;242.75;130.13;;;;;;;;;;5055105;28;20441;-65
2021/10/13 13:19:13;;;;;;;355.08;197.80;;;;;;;;;;5055140;28;20025;-61
2021/10/13 13:21:40;;;;;;;95.35;53.03;;;;;;;;;;5054422;28;20543;-51
2021/10/13 13:24:06;;;;;;;62.30;33.05;;;;;;;;;;5054691;28;21062;-60
2021/10/13 13:26:33;;;;;;;64.72;34.63;;;;;;;;;;5054544;28;20025;-51
2021/10/13 13:29:00;;;;;;;33.00;18.58;;;;;;;;;;5053452;28;20530;-63
2021/10/13 13:31:26;;;;;;;19.98;7.82;;;;;;;;;;5054804;28;20170;-64
2021/10/13 13:33:53;;;;;;;19.45;8.45;;;;;;;;;;5054679;28;20028;-65
2021/10/13 13:36:19;;;;;;;11.05;6.30;;;;;;;;;;5053922;28;20504;-62
2021/10/13 13:38:46;;;;;;;13.98;6.60;;;;;;;;;;5053980;28;20029;-62
2021/10/13 13:41:12;;;;;;;23.52;13.93;;;;;;;;;;5053236;28;20025;-63
2021/10/13 13:43:38;;;;;;;14.43;8.00;;;;;;;;;;5053210;28;20017;-64
2021/10/13 13:46:07;;;;;;;17.63;9.05;;;;;;;;;;5053304;28;20104;-66
2021/10/13 13:48:33;;;;;;;18.98;9.85;;;;;;;;;;5054191;28;20020;-61
2021/10/13 13:50:59;;;;;;;29.77;14.07;;;;;;;;;;5054039;28;20369;-62
2021/10/13 13:53:26;;;;;;;47.38;23.83;;;;;;;;;;5054109;28;20043;-60
2021/10/13 13:55:54;;;;;;;48.50;26.15;;;;;;;;;;5051285;28;20021;-58
2021/10/13 13:58:21;;;;;;;16.13;7.03;;;;;;;;;;5053969;28;20489;-61
2021/10/13 14:00:47;;;;;;;65.03;35.72;;;;;;;;;;5053146;28;20155;-52
2021/10/13 14:03:13;;;;;;;62.05;33.50;;;;;;;;;;5049923;28;20025;-51
2021/10/13 14:05:39;;;;;;;33.33;17.80;;;;;;;;;;5054154;28;20029;-52
2021/10/13 14:08:06;;;;;;;23.40;12.60;;;;;;;;;;5054358;28;20036;-54
2021/10/13 14:10:33;;;;;;;38.88;18.65;;;;;;;;;;5054197;28;20048;-57
2021/10/13 14:13:00;;;;;;;73.10;40.80;;;;;;;;;;5054443;28;20025;-59
2021/10/13 14:15:26;;;;;;;32.05;17.52;;;;;;;;;;5052461;28;20392;-55
2021/10/13 14:17:52;;;;;;;71.78;42.97;;;;;;;;;;5053439;28;20021;-51
2021/10/13 14:20:18;;;;;;;29.42;13.45;;;;;;;;;;5053581;28;20090;-51
2021/10/13 14:22:44;;;;;;;49.42;28.23;;;;;;;;;;5053584;28;20021;-52
2021/10/13 14:25:13;;;;;;;16.77;8.25;;;;;;;;;;5053185;28;20139;-57